Time;durP1;ratioP1;P1;durP2;ratioP2;P2;SDS_P1;SDS_P2;PMS_P1;PMS_P2;Temp;Humidity;BMP_temperature;BMP_pressure;BME280_temperature;BME280_humidity;BME280_pressure;Samples;Min_cycle;Max_cycle;Signal;HPM_P1;HPM_P2
2022/06/02 00:02:05;;;;;;;3.33;3.00;;;9.00;99.90;;;;;;5117491;27;20203;-74
2022/06/02 00:04:41;;;;;;;3.90;3.47;;;8.90;99.90;;;;;;5124423;27;20287;-74
2022/06/02 00:07:12;;;;;;;4.53;3.10;;;8.90;99.90;;;;;;5122860;27;20207;-74
2022/06/02 00:09:57;;;;;;;4.20;3.10;;;8.90;99.90;;;;;;5130456;27;20204;-73
2022/06/02 00:12:31;;;;;;;3.90;3.50;;;8.90;99.90;;;;;;5114774;27;20207;-74
2022/06/02 00:15:12;;;;;;;4.70;3.50;;;8.90;99.90;;;;;;5113446;27;20213;-74
2022/06/02 00:17:47;;;;;;;4.10;3.70;;;8.90;99.90;;;;;;5121835;27;20192;-74
2022/06/02 00:20:18;;;;;;;6.03;4.10;;;8.90;99.90;;;;;;5124449;27;20200;-73
2022/06/02 00:22:55;;;;;;;5.17;4.13;;;8.80;99.90;;;;;;5112084;27;20204;-74
2022/06/02 00:25:30;;;;;;;4.83;3.93;;;8.90;99.90;;;;;;5124115;27;20203;-74
2022/06/02 00:28:05;;;;;;;5.03;4.37;;;8.90;99.90;;;;;;5123150;27;20200;-74
2022/06/02 00:30:38;;;;;;;4.63;3.77;;;8.80;99.90;;;;;;5112125;28;20541;-74
2022/06/02 00:33:21;;;;;;;5.73;4.30;;;8.70;99.90;;;;;;5124504;27;20670;-74
2022/06/02 00:35:54;;;;;;;4.33;3.90;;;8.60;99.90;;;;;;5119224;27;20217;-74
2022/06/02 00:38:26;;;;;;;5.90;3.93;;;8.70;99.90;;;;;;5118473;27;20208;-74
2022/06/02 00:40:54;;;;;;;5.93;4.60;;;8.70;99.90;;;;;;5127170;27;20216;-74
2022/06/02 00:43:39;;;;;;;7.20;4.63;;;8.70;99.90;;;;;;5112290;28;20193;-74
2022/06/02 00:46:22;;;;;;;5.93;4.77;;;8.60;99.90;;;;;;5105657;28;20207;-74
2022/06/02 00:49:00;;;;;;;4.43;4.03;;;8.60;99.90;;;;;;5096144;28;20208;-74
2022/06/02 00:51:40;;;;;;;7.93;4.73;;;8.60;99.90;;;;;;5116285;27;20810;-74
2022/06/02 01:00:02;;;;;;;5.83;4.60;;;8.50;99.90;;;;;;5116736;27;20681;-74
2022/06/02 01:02:34;;;;;;;6.40;5.00;;;8.50;99.90;;;;;;5112401;27;20256;-74
2022/06/02 01:05:03;;;;;;;5.60;4.83;;;8.40;99.90;;;;;;5123315;27;20213;-74
2022/06/02 01:07:41;;;;;;;5.07;4.27;;;8.30;99.90;;;;;;5101728;28;20208;-74
2022/06/02 01:10:37;;;;;;;8.00;5.07;;;8.30;99.90;;;;;;5115784;28;20243;-74
2022/06/02 01:13:22;;;;;;;7.13;5.13;;;8.30;99.90;;;;;;5094622;28;20213;-74
2022/06/02 01:15:55;;;;;;;7.53;5.30;;;8.30;99.90;;;;;;5112520;28;20224;-73
2022/06/02 01:18:32;;;;;;;7.43;5.23;;;8.30;99.90;;;;;;5124511;28;20563;-74
2022/06/02 01:21:25;;;;;;;5.37;4.70;;;8.30;99.90;;;;;;5114467;28;20242;-74
2022/06/02 01:24:15;;;;;;;6.53;5.07;;;8.30;99.90;;;;;;5123039;28;20188;-73
2022/06/02 01:27:15;;;;;;;6.33;5.00;;;8.10;99.90;;;;;;5125132;28;20209;-74
2022/06/02 01:30:16;;;;;;;7.50;5.67;;;8.10;99.90;;;;;;5100499;28;20201;-73
2022/06/02 01:32:56;;;;;;;10.37;6.03;;;8.10;99.90;;;;;;5102038;27;20191;-73
2022/06/02 01:35:30;;;;;;;6.57;5.43;;;8.10;99.90;;;;;;5115514;28;20243;-73
2022/06/02 01:38:04;;;;;;;6.37;5.33;;;8.10;99.90;;;;;;5121668;28;20604;-74
2022/06/02 01:40:37;;;;;;;7.00;5.87;;;8.20;99.90;;;;;;5117432;28;20199;-74
2022/06/02 01:43:13;;;;;;;6.67;5.77;;;8.20;99.90;;;;;;5132663;28;20200;-74
2022/06/02 01:46:15;;;;;;;8.03;5.87;;;8.10;99.90;;;;;;5102345;28;20208;-73
2022/06/02 01:48:51;;;;;;;8.57;6.60;;;8.20;99.90;;;;;;5097439;28;20208;-74
2022/06/02 01:51:30;;;;;;;8.43;6.37;;;8.10;99.90;;;;;;5111927;28;20647;-73
2022/06/02 01:54:07;;;;;;;9.63;6.90;;;8.00;99.90;;;;;;5131720;28;20196;-73
2022/06/02 01:56:49;;;;;;;9.13;7.10;;;8.00;99.90;;;;;;5128654;28;20281;-73
2022/06/02 01:59:37;;;;;;;8.20;6.60;;;7.90;99.90;;;;;;5121072;27;20600;-74
2022/06/02 02:02:15;;;;;;;15.43;9.00;;;8.00;99.90;;;;;;5115997;27;20193;-74
2022/06/02 02:05:02;;;;;;;10.00;7.70;;;8.20;99.90;;;;;;5107024;27;20197;-74
2022/06/02 02:07:34;;;;;;;13.03;9.27;;;8.20;99.90;;;;;;5110484;27;20248;-74
2022/06/02 02:10:14;;;;;;;11.23;8.73;;;8.20;99.90;;;;;;5107610;27;20225;-74
2022/06/02 02:12:54;;;;;;;14.80;9.83;;;8.20;99.90;;;;;;5117843;27;20204;-73
2022/06/02 02:15:30;;;;;;;14.23;9.97;;;8.10;99.90;;;;;;5116090;27;20689;-74
2022/06/02 02:18:11;;;;;;;14.67;9.70;;;8.20;99.90;;;;;;5114835;28;20565;-74
2022/06/02 02:20:54;;;;;;;13.53;9.50;;;8.20;99.90;;;;;;5115257;27;20220;-73
2022/06/02 02:23:28;;;;;;;13.33;9.17;;;8.10;99.90;;;;;;5104290;27;20204;-74
2022/06/02 02:26:01;;;;;;;18.53;10.47;;;8.10;99.90;;;;;;5130514;27;20195;-73
2022/06/02 02:28:35;;;;;;;13.40;10.17;;;8.20;99.90;;;;;;5128858;27;20224;-68
2022/06/02 02:31:13;;;;;;;14.63;11.17;;;8.10;99.90;;;;;;5110563;27;20576;-70
2022/06/02 02:33:59;;;;;;;15.53;10.10;;;8.20;99.90;;;;;;5105090;27;20207;-71
2022/06/02 02:36:34;;;;;;;16.70;9.60;;;8.30;99.90;;;;;;5106774;27;20232;-71
2022/06/02 02:39:15;;;;;;;16.07;10.73;;;8.20;99.90;;;;;;5128032;27;20208;-71
2022/06/02 02:41:57;;;;;;;16.83;11.17;;;8.30;99.90;;;;;;5117848;27;20208;-71
2022/06/02 02:44:34;;;;;;;16.80;11.53;;;8.30;99.90;;;;;;5134889;27;20711;-71
2022/06/02 02:47:08;;;;;;;16.53;10.90;;;8.40;99.90;;;;;;5118273;27;20718;-71
2022/06/02 02:49:40;;;;;;;15.67;10.63;;;8.20;99.90;;;;;;5099401;27;20205;-71
2022/06/02 02:52:17;;;;;;;15.27;11.10;;;8.20;99.90;;;;;;5134896;27;20204;-71
2022/06/02 02:54:51;;;;;;;16.50;11.40;;;8.20;99.90;;;;;;5118705;27;20234;-70
2022/06/02 02:57:24;;;;;;;20.33;12.23;;;8.10;99.90;;;;;;5112594;27;20204;-70
2022/06/02 02:59:57;;;;;;;15.57;10.53;;;8.10;99.90;;;;;;5124527;27;20269;-71
2022/06/02 03:02:31;;;;;;;16.00;11.20;;;8.00;99.90;;;;;;5112867;27;20206;-70
2022/06/02 03:05:05;;;;;;;17.60;11.87;;;8.10;99.90;;;;;;5133707;27;20192;-70
2022/06/02 03:07:34;;;;;;;16.03;11.23;;;8.20;99.90;;;;;;5133186;27;20646;-70
2022/06/02 03:10:07;;;;;;;16.67;11.43;;;8.10;99.90;;;;;;5104435;27;20201;-70
2022/06/02 03:12:49;;;;;;;16.73;11.80;;;8.10;99.90;;;;;;5117899;27;20192;-71
2022/06/02 03:15:21;;;;;;;17.47;11.80;;;8.10;99.90;;;;;;5121766;27;20216;-71
2022/06/02 03:18:14;;;;;;;17.57;11.90;;;8.20;99.90;;;;;;5118060;27;20207;-71
2022/06/02 03:20:52;;;;;;;18.87;13.03;;;8.10;99.90;;;;;;5116506;27;20200;-71
2022/06/02 03:23:36;;;;;;;18.77;12.70;;;8.30;99.90;;;;;;5111849;27;20571;-71
2022/06/02 03:26:09;;;;;;;18.10;13.10;;;8.20;99.90;;;;;;5092872;28;20201;-71
2022/06/02 03:28:49;;;;;;;19.67;13.47;;;8.30;99.90;;;;;;5112346;28;20201;-71
2022/06/02 03:31:25;;;;;;;18.97;12.97;;;8.40;99.90;;;;;;5109947;28;20209;-71
2022/06/02 03:34:04;;;;;;;20.90;13.87;;;8.40;99.90;;;;;;5092483;28;20690;-71
2022/06/02 03:37:14;;;;;;;17.87;12.97;;;8.40;99.90;;;;;;5093628;28;20227;-71
2022/06/02 03:39:56;;;;;;;19.87;13.67;;;8.40;99.90;;;;;;5086302;28;20576;-71
2022/06/02 03:42:36;;;;;;;17.60;12.43;;;8.50;99.90;;;;;;5093967;28;20201;-71
2022/06/02 03:45:20;;;;;;;21.07;13.83;;;8.60;99.90;;;;;;5107350;28;20207;-71
2022/06/02 03:47:59;;;;;;;19.97;13.80;;;8.70;99.90;;;;;;5113094;28;20212;-71
2022/06/02 03:50:52;;;;;;;21.10;14.07;;;8.80;99.90;;;;;;5099495;28;20224;-71
2022/06/02 03:53:31;;;;;;;18.03;12.87;;;8.90;99.90;;;;;;5094090;28;20198;-71
2022/06/02 03:56:13;;;;;;;19.87;14.30;;;8.70;99.90;;;;;;5093060;28;20535;-71
2022/06/02 03:58:54;;;;;;;18.93;12.90;;;8.90;99.90;;;;;;5092038;28;20651;-71
2022/06/02 04:01:25;;;;;;;21.23;13.97;;;8.90;99.90;;;;;;5101162;28;20204;-71
2022/06/02 04:04:08;;;;;;;23.13;15.40;;;9.00;99.90;;;;;;5112657;27;20681;-71
2022/06/02 04:06:50;;;;;;;19.73;13.77;;;9.50;99.90;;;;;;5092578;28;20292;-71
2022/06/02 04:09:32;;;;;;;21.00;14.87;;;10.20;99.90;;;;;;5097376;28;20565;-71
2022/06/02 04:15:34;;;;;;;19.90;14.13;;;10.00;99.90;;;;;;5111247;28;20354;-71
2022/06/02 04:18:09;;;;;;;20.43;14.70;;;10.40;99.90;;;;;;5113446;28;20205;-71
2022/06/02 04:20:46;;;;;;;18.47;13.73;;;11.20;99.90;;;;;;5098056;28;20209;-71
2022/06/02 04:23:49;;;;;;;16.97;13.20;;;11.60;99.90;;;;;;5099553;28;20204;-71
2022/06/02 04:26:31;;;;;;;17.87;12.90;;;11.70;99.90;;;;;;5103292;28;20569;-71
2022/06/02 04:29:12;;;;;;;17.13;13.20;;;11.00;99.90;;;;;;5097776;28;20217;-71
2022/06/02 04:31:51;;;;;;;17.17;13.57;;;10.70;99.90;;;;;;5104031;28;20205;-71
2022/06/02 04:34:27;;;;;;;18.00;13.43;;;10.30;99.90;;;;;;5099262;28;20658;-71
2022/06/02 04:37:06;;;;;;;18.73;13.80;;;10.60;99.90;;;;;;5102638;28;20713;-71
2022/06/02 04:39:44;;;;;;;19.47;13.60;;;10.20;99.90;;;;;;5100908;28;20204;-71
2022/06/02 04:42:25;;;;;;;18.13;13.97;;;9.80;99.90;;;;;;5096084;28;20193;-71
2022/06/02 04:45:04;;;;;;;19.53;14.67;;;10.20;99.90;;;;;;5104027;27;20203;-71
2022/06/02 04:47:45;;;;;;;20.67;15.13;;;10.40;99.90;;;;;;5101578;28;20197;-71
2022/06/02 04:50:19;;;;;;;20.73;15.53;;;10.20;99.90;;;;;;5099148;28;20639;-71
2022/06/02 04:52:57;;;;;;;22.13;16.03;;;10.20;99.90;;;;;;5104150;28;20207;-71
2022/06/02 04:55:34;;;;;;;21.53;15.63;;;10.10;99.90;;;;;;5102498;28;20229;-71
2022/06/02 04:58:11;;;;;;;23.97;15.70;;;10.10;99.90;;;;;;5102861;28;20201;-71
2022/06/02 05:00:47;;;;;;;22.40;16.30;;;10.10;99.90;;;;;;5097096;28;20560;-71
2022/06/02 05:03:19;;;;;;;21.93;16.13;;;10.30;99.90;;;;;;5109594;27;20196;-71
2022/06/02 05:05:56;;;;;;;23.83;17.07;;;10.30;99.90;;;;;;5098579;28;20201;-71
2022/06/02 05:08:52;;;;;;;22.90;16.90;;;10.60;99.90;;;;;;5097648;28;20193;-71
2022/06/02 05:11:33;;;;;;;23.77;17.30;;;11.10;99.90;;;;;;5102763;28;20566;-71
2022/06/02 05:14:11;;;;;;;23.37;17.30;;;10.60;99.90;;;;;;5099767;28;20201;-71
2022/06/02 05:16:49;;;;;;;23.97;17.73;;;10.70;99.90;;;;;;5110915;28;20224;-71
2022/06/02 05:20:00;;;;;;;24.33;17.23;;;10.70;99.90;;;;;;5100482;28;20208;-71
2022/06/02 05:23:11;;;;;;;24.17;17.30;;;11.10;99.90;;;;;;5090912;28;20204;-71
2022/06/02 05:26:04;;;;;;;25.33;17.73;;;11.10;99.90;;;;;;5066168;28;20277;-71
2022/06/02 05:29:01;;;;;;;24.63;16.90;;;11.10;99.90;;;;;;5107104;28;20647;-71
2022/06/02 05:32:12;;;;;;;28.33;17.93;;;11.50;99.90;;;;;;5111495;28;20208;-71
2022/06/02 05:35:21;;;;;;;24.13;18.00;;;11.60;99.90;;;;;;5108331;28;20430;-71
2022/06/02 05:38:02;;;;;;;22.57;17.07;;;11.40;99.90;;;;;;5107315;27;20205;-71
2022/06/02 05:40:37;;;;;;;23.67;17.10;;;11.80;99.90;;;;;;5096739;28;20204;-71
2022/06/02 05:43:18;;;;;;;23.40;18.10;;;12.10;99.90;;;;;;5118544;27;20626;-71
2022/06/02 05:46:02;;;;;;;23.67;17.27;;;13.10;99.90;;;;;;5111772;28;20197;-71
2022/06/02 05:48:44;;;;;;;22.33;16.60;;;13.30;99.90;;;;;;5115626;28;20276;-71
2022/06/02 05:51:23;;;;;;;20.13;14.87;;;13.70;99.90;;;;;;5096468;28;20213;-71
2022/06/02 05:54:03;;;;;;;23.23;17.07;;;12.50;99.90;;;;;;5095336;28;20659;-71
2022/06/02 05:56:39;;;;;;;21.13;15.33;;;12.10;99.90;;;;;;5095967;28;20683;-70
2022/06/02 05:59:34;;;;;;;21.97;16.00;;;11.70;99.90;;;;;;5093929;28;20201;-72
2022/06/02 06:02:18;;;;;;;21.57;16.30;;;11.60;99.90;;;;;;5101959;28;20208;-73
2022/06/02 06:05:16;;;;;;;22.30;16.30;;;11.40;99.90;;;;;;5104245;28;20204;-72
2022/06/02 06:08:15;;;;;;;22.97;16.47;;;11.50;99.90;;;;;;5115610;27;20197;-73
2022/06/02 06:10:58;;;;;;;23.90;16.93;;;11.50;99.90;;;;;;5107350;27;20241;-73
2022/06/02 06:13:44;;;;;;;24.27;16.83;;;11.70;99.90;;;;;;5114267;28;20612;-73
2022/06/02 06:16:18;;;;;;;22.23;15.30;;;11.70;99.90;;;;;;5114005;28;20604;-72
2022/06/02 06:18:56;;;;;;;21.57;15.57;;;11.70;99.90;;;;;;5114017;28;20205;-73
2022/06/02 06:21:39;;;;;;;23.80;17.00;;;11.90;99.90;;;;;;5094541;28;20213;-73
2022/06/02 06:24:52;;;;;;;21.90;15.90;;;11.90;99.90;;;;;;5095211;28;20209;-72
2022/06/02 06:27:28;;;;;;;21.93;15.83;;;11.90;99.90;;;;;;5011468;28;20243;-72
2022/06/02 06:30:06;;;;;;;23.10;17.87;;;11.80;99.90;;;;;;5011369;28;20219;-72
2022/06/02 06:32:40;;;;;;;21.53;16.13;;;12.10;99.90;;;;;;5060920;28;20674;-73
2022/06/02 06:35:30;;;;;;;21.23;15.60;;;12.10;99.90;;;;;;5099446;28;20205;-72
2022/06/02 06:38:38;;;;;;;22.87;16.27;;;12.00;99.90;;;;;;5103677;27;20193;-72
2022/06/02 06:41:31;;;;;;;22.87;15.07;;;12.50;99.90;;;;;;5113408;28;20421;-72
2022/06/02 06:44:10;;;;;;;20.47;14.73;;;12.60;99.90;;;;;;5113359;28;20229;-72
2022/06/02 06:46:42;;;;;;;20.40;14.67;;;12.30;99.90;;;;;;5108205;28;20643;-72
2022/06/02 06:49:16;;;;;;;19.80;15.33;;;12.20;99.90;;;;;;5094732;28;20209;-72
2022/06/02 06:51:54;;;;;;;21.10;15.20;;;12.40;99.90;;;;;;5106204;28;20201;-72
2022/06/02 06:54:30;;;;;;;20.23;15.07;;;12.70;99.90;;;;;;5110732;28;20262;-73
2022/06/02 06:57:05;;;;;;;21.50;14.97;;;12.60;99.90;;;;;;5097226;28;20682;-73
2022/06/02 06:59:49;;;;;;;20.07;14.33;;;12.80;99.90;;;;;;5104565;27;20208;-73
2022/06/02 07:02:29;;;;;;;20.70;14.40;;;13.00;99.90;;;;;;5114271;27;20204;-73
2022/06/02 07:05:03;;;;;;;19.77;14.00;;;13.00;99.90;;;;;;5106823;28;20282;-73
2022/06/02 07:07:37;;;;;;;19.87;14.17;;;12.80;99.90;;;;;;5103625;27;20213;-73
2022/06/02 07:10:11;;;;;;;20.57;13.83;;;12.90;99.90;;;;;;5110146;27;20220;-72
2022/06/02 07:12:51;;;;;;;19.93;14.27;;;12.90;99.90;;;;;;5104517;28;20205;-73
2022/06/02 07:15:28;;;;;;;22.57;15.07;;;13.10;99.90;;;;;;5105140;28;20203;-73
2022/06/02 07:18:02;;;;;;;21.30;14.67;;;13.20;99.90;;;;;;5109849;28;20212;-73
2022/06/02 07:20:38;;;;;;;21.03;14.17;;;13.10;99.90;;;;;;5109787;27;20257;-73
2022/06/02 07:23:14;;;;;;;19.87;13.73;;;13.00;99.90;;;;;;5110133;27;20201;-72
2022/06/02 07:25:51;;;;;;;20.43;14.60;;;13.00;99.90;;;;;;5100367;28;20660;-73
2022/06/02 07:28:31;;;;;;;19.27;14.50;;;13.30;99.90;;;;;;5104211;27;20659;-73
2022/06/02 07:31:09;;;;;;;18.10;12.53;;;13.30;99.90;;;;;;5108541;27;20675;-73
2022/06/02 07:33:53;;;;;;;17.30;12.90;;;13.20;99.90;;;;;;5100197;28;20193;-72
2022/06/02 07:36:47;;;;;;;18.37;13.73;;;13.30;99.90;;;;;;5102520;28;20210;-72
2022/06/02 07:39:51;;;;;;;19.67;13.53;;;13.30;99.90;;;;;;5089050;28;20208;-72
2022/06/02 07:42:42;;;;;;;18.53;13.20;;;13.20;99.90;;;;;;5103332;28;20196;-72
2022/06/02 07:45:30;;;;;;;18.00;12.57;;;13.40;99.90;;;;;;5105376;27;20216;-73
2022/06/02 07:48:14;;;;;;;15.87;11.70;;;13.50;99.90;;;;;;5100766;28;20559;-72
2022/06/02 07:50:51;;;;;;;16.37;12.87;;;13.60;99.90;;;;;;5106206;27;20248;-72
2022/06/02 07:53:24;;;;;;;16.57;12.37;;;13.70;99.90;;;;;;5100137;28;20224;-72
2022/06/02 07:56:00;;;;;;;15.90;11.93;;;14.10;99.90;;;;;;5102792;28;20690;-73
2022/06/02 07:58:40;;;;;;;15.03;11.23;;;14.10;99.90;;;;;;5101901;28;20198;-70
2022/06/02 08:01:32;;;;;;;13.23;9.40;;;14.30;99.90;;;;;;5099073;28;20209;-72
2022/06/02 08:04:08;;;;;;;13.53;9.97;;;13.80;72.00;;;;;;5104077;28;20647;-72
2022/06/02 08:06:42;;;;;;;12.70;9.67;;;13.60;87.60;;;;;;5102885;27;20197;-72
2022/06/02 08:09:51;;;;;;;13.57;8.63;;;13.80;99.90;;;;;;5106951;27;20193;-72
2022/06/02 08:12:27;;;;;;;12.07;8.67;;;13.80;99.90;;;;;;5061949;28;20652;-72
2022/06/02 08:15:12;;;;;;;11.63;8.30;;;13.30;99.90;;;;;;5100588;28;20219;-72
2022/06/02 08:17:48;;;;;;;11.23;8.47;;;13.40;99.90;;;;;;5101131;28;20225;-73
2022/06/02 08:20:30;;;;;;;11.23;7.93;;;13.60;99.90;;;;;;5103456;28;20242;-72
2022/06/02 08:23:01;;;;;;;10.20;7.67;;;13.90;99.90;;;;;;5101981;27;20204;-72
2022/06/02 08:25:34;;;;;;;10.87;7.37;;;14.20;90.60;;;;;;5103377;28;20197;-72
2022/06/02 08:28:30;;;;;;;10.93;7.63;;;14.20;1.00;;;;;;5103130;28;20197;-72
2022/06/02 08:31:05;;;;;;;11.20;7.93;;;14.30;1.00;;;;;;5106350;28;20212;-72
2022/06/02 08:33:49;;;;;;;9.97;7.37;;;14.20;1.00;;;;;;5100396;27;20197;-72
2022/06/02 08:36:18;;;;;;;10.00;7.03;;;14.40;1.00;;;;;;5097820;28;20228;-72
2022/06/02 08:39:03;;;;;;;10.23;6.83;;;14.20;1.00;;;;;;5097483;28;20683;-72
2022/06/02 08:42:10;;;;;;;7.13;6.33;;;14.60;1.00;;;;;;5105105;28;20197;-72
2022/06/02 08:45:07;;;;;;;9.53;6.07;;;14.70;1.00;;;;;;5102532;28;20201;-72
2022/06/02 08:48:10;;;;;;;7.80;6.23;;;14.90;1.00;;;;;;5098483;28;20190;-72
2022/06/02 08:51:09;;;;;;;7.73;5.93;;;15.30;1.00;;;;;;5106704;27;20640;-72
2022/06/02 08:54:25;;;;;;;9.13;5.90;;;15.50;1.00;;;;;;5099685;28;20202;-72
2022/06/02 08:57:21;;;;;;;6.73;5.77;;;15.60;99.90;;;;;;5101242;28;20268;-72
2022/06/02 09:00:18;;;;;;;7.63;5.97;;;16.10;1.00;;;;;;5102659;28;20216;-72
2022/06/02 09:03:28;;;;;;;7.47;6.10;;;16.50;1.00;;;;;;5109890;27;20291;-72
2022/06/02 09:06:38;;;;;;;11.50;5.77;;;15.90;99.90;;;;;;5106089;27;20206;-72
2022/06/02 09:09:43;;;;;;;7.63;5.20;;;16.70;1.00;;;;;;5108035;28;20204;-73
2022/06/02 09:13:03;;;;;;;6.37;4.80;;;16.90;1.00;;;;;;5109189;28;20197;-72
2022/06/02 09:16:00;;;;;;;7.77;5.40;;;17.00;1.00;;;;;;5097591;28;20208;-72
2022/06/02 09:19:02;;;;;;;7.50;5.50;;;16.70;99.90;;;;;;5099701;28;20217;-72
2022/06/02 09:21:40;;;;;;;6.43;5.70;;;17.30;99.90;;;;;;5105486;28;20203;-73
2022/06/02 09:24:20;;;;;;;6.83;4.80;;;17.70;1.00;;;;;;5106668;28;20442;-72
2022/06/02 09:27:00;;;;;;;6.18;5.05;;;17.50;95.40;;;;;;5100200;28;20204;-72
2022/06/02 09:29:40;;;;;;;6.05;4.75;;;17.40;99.90;;;;;;5100512;28;20199;-72
2022/06/02 09:32:25;;;;;;;4.97;4.47;;;17.00;99.90;;;;;;5096852;28;20193;-72
2022/06/02 09:35:11;;;;;;;4.32;3.72;;;17.30;99.90;;;;;;5102270;28;20193;-72
2022/06/02 09:38:14;;;;;;;7.20;4.57;;;17.90;99.90;;;;;;5097527;28;20225;-72
2022/06/02 09:40:46;;;;;;;5.45;4.35;;;18.20;99.90;;;;;;5101230;28;20462;-72
2022/06/02 09:43:47;;;;;;;4.75;4.00;;;18.10;1.00;;;;;;5100874;28;20569;-72
2022/06/02 09:46:58;;;;;;;4.03;3.63;;;18.10;99.90;;;;;;5105544;28;20212;-72
2022/06/02 09:49:46;;;;;;;3.97;3.60;;;17.20;1.00;;;;;;5099216;28;20209;-73
2022/06/02 09:52:30;;;;;;;4.35;3.95;;;18.00;99.90;;;;;;5096998;28;20221;-72
2022/06/02 09:55:28;;;;;;;4.15;3.67;;;18.20;1.00;;;;;;5099347;28;20209;-73
2022/06/02 09:58:13;;;;;;;4.53;4.13;;;18.10;99.90;;;;;;5107984;28;20224;-73
2022/06/02 10:01:05;;;;;;;4.82;4.15;;;18.30;99.90;;;;;;5099432;28;20667;-72
2022/06/02 10:04:10;;;;;;;5.40;3.92;;;18.80;99.90;;;;;;5104768;28;20202;-73
2022/06/02 10:07:28;;;;;;;4.63;3.85;;;19.30;1.00;;;;;;5101592;28;20194;-73
2022/06/02 10:10:21;;;;;;;4.07;3.60;;;18.60;99.90;;;;;;5097187;28;20209;-72
2022/06/02 10:13:23;;;;;;;4.82;3.97;;;18.40;1.00;;;;;;5097667;28;20675;-73
2022/06/02 10:16:13;;;;;;;5.32;4.30;;;18.00;1.00;;;;;;5103578;28;20200;-73
2022/06/02 10:19:01;;;;;;;4.07;3.65;;;17.80;1.00;;;;;;5096015;28;20220;-73
2022/06/02 10:21:44;;;;;;;5.72;3.70;;;18.70;99.90;;;;;;5102354;28;20574;-72
2022/06/02 10:24:48;;;;;;;4.22;3.83;;;17.90;1.00;;;;;;5101170;27;20284;-73
2022/06/02 10:27:48;;;;;;;5.60;3.80;;;17.90;1.00;;;;;;5105293;28;20200;-72
2022/06/02 10:30:46;;;;;;;5.50;3.50;;;18.70;99.90;;;;;;5106198;27;20697;-73
2022/06/02 10:33:40;;;;;;;4.13;3.60;;;18.30;1.00;;;;;;5118091;27;20197;-73
2022/06/02 10:36:41;;;;;;;3.53;3.22;;;18.60;1.00;;;;;;5099358;28;20200;-73
2022/06/02 10:39:29;;;;;;;3.35;3.05;;;19.40;1.00;;;;;;5061240;28;20204;-73
2022/06/02 10:42:14;;;;;;;4.53;3.58;;;19.20;1.00;;;;;;5106649;28;20201;-73
2022/06/02 10:45:19;;;;;;;4.70;3.15;;;18.50;99.90;;;;;;5110887;28;20208;-73
2022/06/02 10:48:23;;;;;;;4.63;3.75;;;18.20;99.90;;;;;;5113763;28;20639;-73
2022/06/02 10:51:07;;;;;;;3.50;3.08;;;17.80;60.50;;;;;;5104898;28;20213;-72
2022/06/02 10:54:04;;;;;;;5.70;3.20;;;18.30;99.90;;;;;;5094521;28;20212;-73
2022/06/02 10:56:57;;;;;;;3.65;2.65;;;19.10;1.00;;;;;;5094631;28;20209;-73
2022/06/02 11:00:02;;;;;;;6.10;2.90;;;19.70;1.00;;;;;;5094529;28;20213;-73
2022/06/02 11:03:14;;;;;;;5.18;3.15;;;19.70;1.00;;;;;;5094113;28;20251;-72
2022/06/02 11:06:21;;;;;;;2.60;2.40;;;19.30;1.00;;;;;;5096570;28;20523;-73
2022/06/02 11:09:34;;;;;;;3.72;2.78;;;19.70;1.00;;;;;;5114531;28;20301;-73
2022/06/02 11:12:23;;;;;;;4.45;2.42;;;19.20;1.00;;;;;;5114086;28;20294;-73
2022/06/02 11:15:16;;;;;;;3.88;2.58;;;18.90;1.00;;;;;;5111433;28;20213;-73
2022/06/02 11:18:12;;;;;;;2.72;2.42;;;18.60;1.00;;;;;;5093334;28;20695;-73
2022/06/02 11:21:12;;;;;;;4.22;2.30;;;18.40;1.00;;;;;;5093942;28;20217;-73
2022/06/02 11:24:03;;;;;;;3.35;2.30;;;19.60;1.00;;;;;;5105013;28;20208;-73
2022/06/02 11:27:09;;;;;;;4.45;2.42;;;20.10;1.00;;;;;;5114380;28;20201;-73
2022/06/02 11:30:12;;;;;;;4.80;2.80;;;19.90;1.00;;;;;;5069988;28;20259;-73
2022/06/02 11:33:14;;;;;;;2.65;2.45;;;19.50;1.00;;;;;;5093294;28;20212;-73
2022/06/02 11:36:27;;;;;;;4.90;2.55;;;20.20;1.00;;;;;;5094292;28;20197;-73
2022/06/02 11:39:25;;;;;;;4.32;2.90;;;20.00;99.90;;;;;;5102558;28;20221;-73
2022/06/02 11:42:03;;;;;;;3.13;2.50;;;20.20;1.00;;;;;;5113092;28;20261;-73
2022/06/02 11:44:44;;;;;;;5.75;3.05;;;21.10;1.00;;;;;;5103118;28;20248;-73
2022/06/02 11:47:40;;;;;;;2.88;2.67;;;20.50;99.90;;;;;;5109764;28;20520;-73
2022/06/02 11:50:28;;;;;;;2.78;2.38;;;20.90;99.90;;;;;;5101284;28;20214;-73
2022/06/02 11:53:31;;;;;;;3.22;2.92;;;21.00;99.90;;;;;;5093388;28;20206;-73
2022/06/02 11:56:05;;;;;;;4.30;3.20;;;20.90;99.90;;;;;;5097630;27;20665;-73
2022/06/02 11:59:01;;;;;;;3.78;3.38;;;20.60;99.90;;;;;;5112110;27;20216;-73
2022/06/02 12:01:47;;;;;;;3.25;2.80;;;21.00;1.00;;;;;;5111996;28;20219;-73
2022/06/02 12:04:59;;;;;;;5.05;3.05;;;20.70;99.90;;;;;;5093273;28;20212;-73
2022/06/02 12:08:02;;;;;;;3.70;2.83;;;19.90;99.90;;;;;;5092954;28;20198;-73
2022/06/02 12:11:09;;;;;;;3.47;3.17;;;19.60;99.90;;;;;;5091666;28;20653;-73
2022/06/02 12:13:55;;;;;;;4.53;3.05;;;19.80;1.00;;;;;;5094633;28;20731;-73
2022/06/02 12:16:38;;;;;;;2.90;2.70;;;20.40;99.90;;;;;;5093245;28;20209;-73
2022/06/02 12:19:31;;;;;;;4.40;2.80;;;20.60;99.90;;;;;;5092412;28;20699;-73
2022/06/02 12:22:01;;;;;;;3.88;2.97;;;20.90;99.90;;;;;;5092305;28;20212;-74
2022/06/02 12:25:03;;;;;;;4.28;3.25;;;19.80;99.90;;;;;;5092767;28;20651;-73
2022/06/02 12:27:57;;;;;;;4.20;3.20;;;20.10;99.90;;;;;;5074696;28;20198;-74
2022/06/02 12:30:38;;;;;;;4.03;3.00;;;19.80;99.90;;;;;;5092791;28;20648;-73
2022/06/02 12:33:38;;;;;;;3.50;2.70;;;19.50;99.90;;;;;;5092895;28;20205;-72
2022/06/02 12:36:28;;;;;;;4.32;3.05;;;19.40;99.90;;;;;;5096450;27;20247;-73
2022/06/02 12:39:18;;;;;;;3.40;2.40;;;19.70;99.90;;;;;;5108659;27;20273;-73
2022/06/02 12:42:33;;;;;;;4.38;2.50;;;20.30;99.90;;;;;;5123990;27;20207;-73
2022/06/02 12:45:30;;;;;;;2.47;2.10;;;20.00;99.90;;;;;;5093556;28;20197;-73
2022/06/02 12:48:37;;;;;;;3.55;2.25;;;21.20;99.90;;;;;;5087020;27;20209;-73
2022/06/02 12:51:21;;;;;;;2.75;2.25;;;20.90;99.90;;;;;;5113043;28;20200;-72
2022/06/02 12:54:33;;;;;;;4.07;2.47;;;20.40;99.90;;;;;;5095045;28;20205;-71
2022/06/02 12:57:45;;;;;;;3.05;2.40;;;19.70;99.90;;;;;;5103803;27;20203;-71
2022/06/02 13:00:25;;;;;;;2.55;2.35;;;19.70;99.90;;;;;;5130978;27;20665;-71
2022/06/02 13:03:29;;;;;;;3.28;2.40;;;19.60;99.90;;;;;;5091977;28;20212;-71
2022/06/02 13:06:35;;;;;;;2.83;2.30;;;19.90;99.90;;;;;;5112157;27;20223;-71
2022/06/02 13:09:30;;;;;;;2.65;2.25;;;19.90;99.90;;;;;;5112301;28;20189;-71
2022/06/02 13:12:48;;;;;;;3.20;2.00;;;20.00;99.90;;;;;;5101158;28;20193;-71
2022/06/02 13:15:33;;;;;;;3.00;2.30;;;20.00;99.90;;;;;;5097931;28;20201;-71
2022/06/02 13:18:31;;;;;;;2.65;2.30;;;20.00;99.90;;;;;;5098954;28;20217;-71
2022/06/02 13:21:36;;;;;;;2.22;1.88;;;19.90;99.90;;;;;;5105302;28;20246;-71
2022/06/02 13:24:26;;;;;;;2.25;2.15;;;19.90;99.90;;;;;;5094662;28;20201;-71
2022/06/02 13:27:26;;;;;;;2.40;2.20;;;19.80;99.90;;;;;;5112001;28;20201;-71
2022/06/02 13:30:21;;;;;;;2.20;1.80;;;19.80;99.90;;;;;;5120661;28;20200;-71
2022/06/02 13:33:14;;;;;;;2.20;2.00;;;20.10;99.90;;;;;;5115327;27;20639;-72
2022/06/02 13:36:11;;;;;;;2.95;2.60;;;19.80;99.90;;;;;;5068036;28;20646;-72
2022/06/02 13:39:15;;;;;;;2.28;1.63;;;20.20;99.90;;;;;;5111801;28;20220;-71
2022/06/02 13:42:12;;;;;;;1.70;1.60;;;20.10;99.90;;;;;;5092319;28;20541;-72
2022/06/02 13:45:06;;;;;;;3.13;1.55;;;20.10;99.90;;;;;;5056881;28;20217;-72
2022/06/02 13:48:16;;;;;;;2.03;1.75;;;20.50;99.90;;;;;;5103091;28;20205;-72
2022/06/02 13:51:08;;;;;;;2.45;1.40;;;20.20;99.90;;;;;;5099391;28;20595;-72
2022/06/02 14:00:04;;;;;;;1.90;1.70;;;21.10;99.90;;;;;;5109901;27;20297;-72
2022/06/02 14:02:56;;;;;;;1.60;1.50;;;20.50;99.90;;;;;;5106560;27;20373;-72
2022/06/02 14:05:42;;;;;;;2.25;2.15;;;20.40;99.90;;;;;;5111157;28;20201;-72
2022/06/02 14:09:13;;;;;;;2.97;1.95;;;20.30;99.90;;;;;;5101050;27;20193;-71
2022/06/02 14:11:53;;;;;;;2.33;2.10;;;19.90;99.90;;;;;;4975757;28;20248;-71
2022/06/02 14:14:38;;;;;;;3.65;2.20;;;20.00;99.90;;;;;;5026067;28;20593;-71
2022/06/02 14:17:18;;;;;;;3.13;2.25;;;19.70;99.90;;;;;;5095998;28;20208;-71
2022/06/02 14:20:13;;;;;;;3.45;1.90;;;19.90;99.90;;;;;;5107130;27;20659;-71
2022/06/02 14:22:54;;;;;;;2.38;1.90;;;19.60;99.90;;;;;;5106392;27;20600;-71
2022/06/02 14:25:34;;;;;;;2.60;2.10;;;19.70;99.90;;;;;;5107428;27;20205;-71
2022/06/02 14:28:21;;;;;;;2.90;2.00;;;20.40;99.90;;;;;;5116401;27;20192;-71
2022/06/02 14:30:53;;;;;;;2.55;2.00;;;21.10;99.90;;;;;;5113861;28;20215;-71
2022/06/02 14:33:28;;;;;;;1.92;1.60;;;21.30;99.90;;;;;;5115215;28;20216;-71
2022/06/02 14:36:01;;;;;;;1.88;1.65;;;20.80;99.90;;;;;;5118671;27;20200;-71
2022/06/02 14:38:41;;;;;;;1.80;1.70;;;21.10;99.90;;;;;;5115823;27;20224;-71